createdAt,value
2023-03-07T00:01:30.667Z,31.02
2023-03-07T00:03:58.631Z,29.65
2023-03-07T00:06:26.162Z,31.25
2023-03-07T00:08:55.364Z,30.52
2023-03-07T00:11:22.077Z,31.30
2023-03-07T00:13:49.072Z,30.02
2023-03-07T00:16:18.930Z,31.65
2023-03-07T00:18:46.224Z,32.17
2023-03-07T00:21:15.569Z,32.45
2023-03-07T00:23:44.007Z,31.25
2023-03-07T00:26:15.117Z,29.52
2023-03-07T00:28:41.966Z,29.25
2023-03-07T00:31:11.271Z,28.17
2023-03-07T00:33:39.519Z,30.58
2023-03-07T00:36:15.346Z,28.58
2023-03-07T00:38:42.441Z,29.17
2023-03-07T00:41:21.047Z,29.50
2023-03-07T00:43:48.483Z,27.33
2023-03-07T00:46:17.121Z,28.40
2023-03-07T00:48:46.561Z,28.67
2023-03-07T00:51:16.283Z,27.50
2023-03-07T00:53:43.841Z,29.60
2023-03-07T00:56:15.894Z,29.77
2023-03-07T00:58:42.964Z,28.20
2023-03-07T01:01:11.556Z,30.33
2023-03-07T01:03:38.702Z,29.27
2023-03-07T01:06:12.525Z,28.63
2023-03-07T01:08:39.545Z,30.27
2023-03-07T01:11:07.477Z,29.48
2023-03-07T01:13:35.459Z,30.00
2023-03-07T01:16:14.353Z,30.40
2023-03-07T01:18:42.127Z,28.95
2023-03-07T01:21:23.856Z,30.05
2023-03-07T01:23:50.843Z,31.73
2023-03-07T01:26:20.316Z,29.80
2023-03-07T01:28:47.565Z,28.88
2023-03-07T01:31:14.812Z,29.73
2023-03-07T01:33:42.182Z,29.63
2023-03-07T01:36:22.799Z,30.35
2023-03-07T01:41:17.920Z,28.15
2023-03-07T01:43:45.289Z,30.27
2023-03-07T01:46:18.290Z,32.70
2023-03-07T01:49:19.540Z,29.88
2023-03-07T01:51:50.501Z,29.30
2023-03-07T01:54:19.413Z,30.23
2023-03-07T01:56:47.244Z,29.92
2023-03-07T01:59:20.050Z,29.25
2023-03-07T02:01:47.216Z,29.73
2023-03-07T02:04:21.448Z,29.58
2023-03-07T02:06:49.982Z,30.35
2023-03-07T02:09:19.850Z,29.75
2023-03-07T02:11:48.145Z,28.70
2023-03-07T02:14:15.117Z,30.48
2023-03-07T02:16:42.943Z,29.75
2023-03-07T02:19:31.100Z,30.17
2023-03-07T02:22:11.086Z,29.80
2023-03-07T02:24:59.421Z,31.83
2023-03-07T02:27:27.810Z,31.40
2023-03-07T02:29:54.634Z,29.55
2023-03-07T02:32:21.923Z,30.55
2023-03-07T02:34:48.727Z,30.98
2023-03-07T02:37:22.558Z,30.45
2023-03-07T02:39:51.301Z,30.92
2023-03-07T02:42:22.554Z,32.97
2023-03-07T02:45:05.215Z,33.15
2023-03-07T02:47:32.582Z,32.03
2023-03-07T02:49:59.403Z,32.38
2023-03-07T02:52:28.026Z,33.72
2023-03-07T02:54:55.690Z,31.50
2023-03-07T02:57:22.540Z,32.75
2023-03-07T02:59:50.568Z,33.78
2023-03-07T03:02:17.636Z,32.42
2023-03-07T03:04:44.684Z,31.50
2023-03-07T03:07:11.646Z,33.00
2023-03-07T03:09:38.500Z,32.78
2023-03-07T03:12:05.613Z,32.33
2023-03-07T03:14:32.944Z,32.28
2023-03-07T03:16:59.982Z,31.25
2023-03-07T03:19:28.383Z,31.33
2023-03-07T03:21:55.399Z,31.75
2023-03-07T03:24:22.276Z,30.67
2023-03-07T03:26:49.076Z,31.17
2023-03-07T03:29:16.246Z,32.40
2023-03-07T03:31:43.390Z,30.50
2023-03-07T03:34:10.276Z,31.35
2023-03-07T03:36:37.050Z,31.48
2023-03-07T03:39:07.113Z,31.33
2023-03-07T03:41:33.952Z,31.50
2023-03-07T03:44:02.457Z,31.60
2023-03-07T03:46:29.692Z,29.45
2023-03-07T03:48:56.769Z,29.40
2023-03-07T03:51:24.907Z,31.75
2023-03-07T03:53:52.216Z,28.80
2023-03-07T03:56:21.926Z,31.75
2023-03-07T03:58:50.624Z,30.70
2023-03-07T04:01:18.864Z,30.60
2023-03-07T04:03:48.554Z,30.38
2023-03-07T04:06:26.874Z,29.30
2023-03-07T04:08:54.407Z,29.88
2023-03-07T04:11:22.754Z,31.58
2023-03-07T04:13:50.145Z,29.42
2023-03-07T04:16:17.349Z,32.40
2023-03-07T04:18:44.869Z,30.33
2023-03-07T04:21:11.955Z,28.33
2023-03-07T04:23:39.437Z,31.13
2023-03-07T04:26:08.957Z,27.67
2023-03-07T04:28:49.501Z,31.17
2023-03-07T04:31:19.634Z,30.98
2023-03-07T04:33:47.691Z,29.15
2023-03-07T04:36:18.348Z,31.30
2023-03-07T04:41:17.246Z,29.33
2023-03-07T04:43:44.547Z,32.08
2023-03-07T04:46:14.001Z,34.33
2023-03-07T04:48:41.314Z,33.30
2023-03-07T04:51:08.119Z,32.15
2023-03-07T04:53:34.865Z,30.95
2023-03-07T04:56:08.297Z,32.55
2023-03-07T04:58:36.842Z,31.60
2023-03-07T05:01:05.486Z,29.90
2023-03-07T05:03:32.964Z,31.90
2023-03-07T05:06:05.294Z,30.63
2023-03-07T05:08:32.823Z,29.52
2023-03-07T05:11:00.897Z,29.25
2023-03-07T05:13:27.964Z,29.88
2023-03-07T05:15:57.064Z,31.30
2023-03-07T05:18:24.649Z,32.28
2023-03-07T05:20:51.715Z,32.03
2023-03-07T05:23:19.984Z,30.90
2023-03-07T05:25:47.410Z,33.15
2023-03-07T05:28:17.065Z,31.30
2023-03-07T05:30:45.101Z,36.20
2023-03-07T05:33:13.607Z,34.80
2023-03-07T05:35:40.507Z,39.15
2023-03-07T05:38:07.896Z,36.42
2023-03-07T05:40:35.287Z,37.13
2023-03-07T05:43:02.466Z,36.58
2023-03-07T05:45:29.550Z,36.72
2023-03-07T05:47:56.470Z,39.65
2023-03-07T05:50:24.044Z,37.75
2023-03-07T05:52:53.092Z,38.95
2023-03-07T05:55:20.236Z,35.95
2023-03-07T05:57:47.276Z,36.10
2023-03-07T06:00:16.496Z,38.15
2023-03-07T06:02:43.587Z,36.58
2023-03-07T06:05:11.026Z,37.00
2023-03-07T06:07:37.802Z,36.35
2023-03-07T06:10:05.399Z,38.17
2023-03-07T06:12:32.558Z,37.90
2023-03-07T06:14:59.295Z,37.97
2023-03-07T06:17:26.633Z,37.13
2023-03-07T06:19:56.407Z,36.50
2023-03-07T06:22:23.214Z,36.50
2023-03-07T06:24:50.301Z,39.33
2023-03-07T06:27:17.089Z,37.85
2023-03-07T06:29:44.056Z,37.47
2023-03-07T06:32:11.011Z,36.08
2023-03-07T06:34:38.492Z,35.03
2023-03-07T06:37:05.376Z,36.15
2023-03-07T06:39:32.096Z,36.90
2023-03-07T06:41:59.001Z,38.55
2023-03-07T06:44:26.064Z,39.08
2023-03-07T06:46:52.970Z,38.65
2023-03-07T06:49:20.664Z,40.97
2023-03-07T06:51:47.543Z,41.35
2023-03-07T06:54:16.332Z,39.50
2023-03-07T06:56:45.320Z,39.92
2023-03-07T06:59:15.284Z,37.00
2023-03-07T07:01:42.365Z,38.08
2023-03-07T07:04:11.459Z,38.25
2023-03-07T07:06:38.289Z,36.58
2023-03-07T07:09:05.869Z,35.78
2023-03-07T07:11:33.097Z,35.28
2023-03-07T07:14:07.074Z,38.28
2023-03-07T07:16:48.531Z,37.08
2023-03-07T07:19:33.578Z,36.60
2023-03-07T07:22:02.899Z,33.55
2023-03-07T07:24:30.320Z,31.92
2023-03-07T07:26:58.434Z,32.08
2023-03-07T07:29:26.616Z,33.00
2023-03-07T07:31:56.182Z,34.50
2023-03-07T07:34:24.145Z,35.08
2023-03-07T07:36:52.334Z,34.13
2023-03-07T07:39:19.552Z,35.03
2023-03-07T07:41:48.140Z,35.05
2023-03-07T07:44:16.380Z,34.28
2023-03-07T07:46:44.620Z,36.15
2023-03-07T07:49:11.425Z,36.50
2023-03-07T07:51:40.971Z,37.03
2023-03-07T07:54:09.199Z,38.55
2023-03-07T07:56:36.520Z,38.38
2023-03-07T07:59:03.846Z,34.88
2023-03-07T08:01:30.711Z,38.63
2023-03-07T08:03:57.524Z,40.20
2023-03-07T08:06:27.667Z,39.13
2023-03-07T08:08:56.875Z,40.33
2023-03-07T08:11:24.174Z,40.22
2023-03-07T08:13:51.004Z,40.92
2023-03-07T08:16:22.499Z,41.03
2023-03-07T08:18:53.832Z,40.05
2023-03-07T08:21:22.964Z,40.10
2023-03-07T08:23:50.266Z,37.47
2023-03-07T08:26:17.964Z,39.28
2023-03-07T08:28:45.118Z,40.65
2023-03-07T08:31:15.017Z,38.92
2023-03-07T08:33:42.502Z,34.53
2023-03-07T08:36:10.771Z,33.70
2023-03-07T08:38:39.408Z,34.08
2023-03-07T08:41:08.301Z,31.98
2023-03-07T08:43:37.050Z,31.95
2023-03-07T08:46:05.185Z,27.95
2023-03-07T08:48:32.869Z,31.60
2023-03-07T08:51:09.562Z,31.20
2023-03-07T08:53:38.142Z,28.20
2023-03-07T08:56:09.749Z,30.00
2023-03-07T08:58:38.475Z,28.58
2023-03-07T09:01:06.974Z,28.15
2023-03-07T09:03:34.636Z,29.00
2023-03-07T09:06:03.596Z,28.50
2023-03-07T09:08:30.629Z,28.80
2023-03-07T09:11:01.045Z,29.67
2023-03-07T09:13:27.902Z,28.73
2023-03-07T09:15:54.982Z,29.88
2023-03-07T09:18:24.923Z,29.65
2023-03-07T09:20:52.798Z,28.80
2023-03-07T09:23:20.983Z,29.00
2023-03-07T09:25:48.882Z,30.83
2023-03-07T09:28:15.605Z,30.45
2023-03-07T09:30:42.353Z,33.60
2023-03-07T09:33:09.164Z,31.25
2023-03-07T09:35:38.110Z,26.63
2023-03-07T09:38:04.912Z,22.88
2023-03-07T09:40:31.783Z,24.17
2023-03-07T09:43:18.167Z,22.10
2023-03-07T09:46:02.386Z,18.55
2023-03-07T09:48:55.056Z,17.45
2023-03-07T09:51:42.100Z,16.63
2023-03-07T09:54:24.492Z,13.10
2023-03-07T09:56:57.550Z,13.43
2023-03-07T09:59:47.385Z,12.52
2023-03-07T10:02:39.306Z,12.17
2023-03-07T10:05:08.991Z,13.15
2023-03-07T10:07:36.660Z,12.57
2023-03-07T10:10:28.063Z,11.43
2023-03-07T10:13:07.891Z,11.48
2023-03-07T10:15:47.643Z,13.73
2023-03-07T10:18:47.330Z,12.00
2023-03-07T10:21:27.823Z,13.15
2023-03-07T10:24:13.250Z,14.15
2023-03-07T10:26:54.484Z,12.38
2023-03-07T10:29:24.665Z,12.15
2023-03-07T10:31:56.739Z,14.48
2023-03-07T10:34:28.760Z,14.35
2023-03-07T10:37:20.503Z,13.68
2023-03-07T10:39:54.692Z,14.73
2023-03-07T10:42:24.031Z,13.43
2023-03-07T10:44:52.006Z,12.73
2023-03-07T10:47:24.688Z,11.93
2023-03-07T10:49:55.068Z,10.75
2023-03-07T10:52:35.137Z,10.88
2023-03-07T10:55:32.746Z,10.77
2023-03-07T10:58:25.479Z,11.52
2023-03-07T11:01:07.225Z,11.38
2023-03-07T11:03:58.710Z,10.15
2023-03-07T11:06:33.318Z,9.52
2023-03-07T11:09:22.196Z,9.23
2023-03-07T11:12:09.133Z,9.73
2023-03-07T11:14:53.769Z,8.93
2023-03-07T11:17:27.230Z,10.15
2023-03-07T11:19:55.676Z,10.07
2023-03-07T11:22:28.892Z,9.65
2023-03-07T11:25:01.479Z,9.52
2023-03-07T11:27:35.829Z,9.98
2023-03-07T11:30:35.392Z,9.27
2023-03-07T11:33:12.234Z,10.13
2023-03-07T11:36:01.145Z,9.65
2023-03-07T11:38:41.237Z,9.48
2023-03-07T11:41:31.413Z,10.50
2023-03-07T11:44:35.611Z,10.18
2023-03-07T11:47:14.037Z,10.48
2023-03-07T11:49:46.836Z,10.68
2023-03-07T11:52:53.539Z,11.00
2023-03-07T11:55:47.433Z,11.18
2023-03-07T11:58:21.314Z,11.63
2023-03-07T12:01:18.617Z,11.10
2023-03-07T12:04:22.713Z,11.20
2023-03-07T12:07:07.506Z,11.63
2023-03-07T12:09:57.773Z,11.55
2023-03-07T12:12:33.400Z,12.35
2023-03-07T12:15:24.158Z,11.52
2023-03-07T12:17:57.049Z,12.30
2023-03-07T12:20:33.981Z,11.10
2023-03-07T12:23:22.065Z,10.98
2023-03-07T12:25:57.258Z,11.18
2023-03-07T12:28:43.827Z,11.27
2023-03-07T12:31:26.348Z,11.10
2023-03-07T12:33:53.159Z,10.90
2023-03-07T12:36:26.993Z,10.73
2023-03-07T12:39:25.434Z,10.43
2023-03-07T12:42:16.322Z,10.10
2023-03-07T12:45:07.396Z,9.45
2023-03-07T12:47:56.887Z,10.70
2023-03-07T12:51:05.757Z,11.05
2023-03-07T12:53:54.986Z,10.80
2023-03-07T12:57:01.990Z,10.35
2023-03-07T12:59:32.230Z,9.25
2023-03-07T13:02:06.213Z,10.20
2023-03-07T13:04:35.726Z,9.70
2023-03-07T13:07:15.925Z,11.13
2023-03-07T13:09:48.814Z,9.77
2023-03-07T13:12:20.079Z,9.77
2023-03-07T13:14:55.949Z,9.23
2023-03-07T13:17:31.772Z,10.13
2023-03-07T13:20:00.294Z,9.85
2023-03-07T13:22:27.359Z,10.02
2023-03-07T13:24:55.872Z,10.23
2023-03-07T13:27:30.931Z,9.90
2023-03-07T13:30:13.423Z,9.73
2023-03-07T13:32:49.302Z,11.18
2023-03-07T13:35:31.295Z,8.90
2023-03-07T13:38:15.028Z,10.38
2023-03-07T13:40:45.021Z,9.98
2023-03-07T13:43:26.320Z,9.30
2023-03-07T13:46:05.855Z,9.82
2023-03-07T13:48:32.619Z,9.68
2023-03-07T13:50:59.375Z,9.63
2023-03-07T13:53:30.176Z,10.05
2023-03-07T13:56:03.332Z,9.73
2023-03-07T13:58:29.984Z,11.25
2023-03-07T14:01:00.791Z,10.55
2023-03-07T14:03:39.071Z,11.23
2023-03-07T14:06:14.477Z,10.40
2023-03-07T14:08:42.231Z,10.45
2023-03-07T14:11:28.131Z,10.27
2023-03-07T14:14:04.556Z,10.55
2023-03-07T14:16:57.061Z,11.50
2023-03-07T14:19:59.359Z,10.45
2023-03-07T14:22:38.478Z,11.05
2023-03-07T14:25:28.224Z,11.40
2023-03-07T14:27:56.451Z,11.20
2023-03-07T14:30:25.115Z,10.13
2023-03-07T14:32:52.567Z,11.63
2023-03-07T14:35:44.790Z,10.75
2023-03-07T14:38:21.579Z,9.55
2023-03-07T14:41:06.237Z,10.35
2023-03-07T14:44:00.538Z,11.38
2023-03-07T14:46:47.280Z,10.57
2023-03-07T14:49:40.904Z,9.98
2023-03-07T14:52:21.458Z,10.32
2023-03-07T14:55:05.342Z,11.07
2023-03-07T14:57:39.790Z,9.93
2023-03-07T15:00:25.054Z,9.88
2023-03-07T15:03:15.054Z,10.70
2023-03-07T15:05:53.532Z,10.38
2023-03-07T15:08:32.255Z,11.77
2023-03-07T15:11:29.736Z,10.90
2023-03-07T15:14:15.143Z,12.07
2023-03-07T15:16:46.627Z,11.38
2023-03-07T15:19:48.201Z,12.20
2023-03-07T15:22:31.198Z,10.57
2023-03-07T15:24:58.213Z,11.65
2023-03-07T15:27:31.512Z,12.10
2023-03-07T15:30:00.622Z,11.55
2023-03-07T15:32:30.553Z,10.98
2023-03-07T15:35:07.996Z,12.00
2023-03-07T15:37:36.610Z,10.93
2023-03-07T15:40:09.177Z,11.38
2023-03-07T15:46:37.688Z,12.02
2023-03-07T15:49:08.608Z,10.45
2023-03-07T15:51:46.468Z,10.98
2023-03-07T15:54:42.491Z,12.18
2023-03-07T15:57:25.904Z,11.70
2023-03-07T15:59:57.285Z,11.27
2023-03-07T16:02:33.273Z,12.57
2023-03-07T16:05:04.734Z,11.48
2023-03-07T16:07:31.447Z,11.07
2023-03-07T16:09:58.216Z,12.38
2023-03-07T16:12:25.445Z,12.23
2023-03-07T16:14:54.118Z,12.40
2023-03-07T16:17:37.716Z,11.52
2023-03-07T16:20:13.381Z,12.45
2023-03-07T16:22:40.079Z,12.45
2023-03-07T16:25:07.739Z,13.20
2023-03-07T16:27:34.562Z,12.45
2023-03-07T16:30:01.472Z,12.57
2023-03-07T16:32:30.103Z,11.90
2023-03-07T16:34:56.922Z,11.65
2023-03-07T16:37:24.462Z,12.30
2023-03-07T16:39:51.437Z,12.80
2023-03-07T16:42:23.045Z,12.63
2023-03-07T16:44:51.646Z,13.07
2023-03-07T16:47:18.810Z,14.40
2023-03-07T16:49:46.853Z,14.27
2023-03-07T16:52:14.483Z,13.65
2023-03-07T16:54:41.474Z,13.00
2023-03-07T16:57:15.010Z,12.70
2023-03-07T16:59:47.183Z,12.82
2023-03-07T17:02:18.493Z,14.32
2023-03-07T17:04:45.663Z,12.40
2023-03-07T17:07:19.800Z,15.18
2023-03-07T17:09:46.915Z,13.82
2023-03-07T17:12:14.582Z,13.95
2023-03-07T17:14:42.347Z,13.52
2023-03-07T17:17:17.416Z,14.18
2023-03-07T17:19:44.602Z,12.38
2023-03-07T17:22:11.312Z,13.68
2023-03-07T17:24:38.120Z,12.82
2023-03-07T17:27:05.547Z,12.65
2023-03-07T17:29:38.199Z,13.43
2023-03-07T17:32:05.728Z,14.07
2023-03-07T17:34:34.826Z,14.65
2023-03-07T17:37:01.935Z,15.10
2023-03-07T17:39:30.989Z,15.02
2023-03-07T17:41:59.110Z,14.07
2023-03-07T17:44:26.315Z,16.15
2023-03-07T17:46:56.068Z,14.75
2023-03-07T17:49:23.794Z,15.83
2023-03-07T17:51:52.130Z,16.02
2023-03-07T17:54:19.644Z,16.63
2023-03-07T17:56:46.642Z,17.55
2023-03-07T17:59:13.358Z,15.73
2023-03-07T18:01:40.319Z,17.52
2023-03-07T18:04:08.115Z,16.25
2023-03-07T18:06:36.744Z,17.35
2023-03-07T18:09:05.407Z,17.17
2023-03-07T18:11:32.730Z,16.35
2023-03-07T18:14:00.253Z,21.73
2023-03-07T18:16:27.251Z,19.23
2023-03-07T18:19:00.542Z,17.13
2023-03-07T18:21:32.888Z,16.48
2023-03-07T18:24:01.455Z,17.63
2023-03-07T18:26:28.978Z,17.73
2023-03-07T18:28:56.560Z,16.42
2023-03-07T18:31:26.335Z,17.85
2023-03-07T18:33:53.688Z,17.55
2023-03-07T18:36:27.534Z,17.13
2023-03-07T18:38:54.409Z,17.05
2023-03-07T18:41:23.849Z,15.70
2023-03-07T18:43:53.823Z,16.92
2023-03-07T18:46:22.537Z,16.23
2023-03-07T18:48:50.616Z,15.77
2023-03-07T18:51:23.889Z,16.52
2023-03-07T18:53:52.538Z,17.42
2023-03-07T18:56:20.079Z,17.70
2023-03-07T18:58:47.598Z,16.63
2023-03-07T19:01:19.852Z,16.63
2023-03-07T19:03:48.400Z,17.15
2023-03-07T19:06:18.655Z,16.60
2023-03-07T19:08:46.107Z,17.23
2023-03-07T19:11:16.245Z,17.17
2023-03-07T19:13:43.793Z,16.95
2023-03-07T19:16:23.816Z,17.48
2023-03-07T19:18:51.505Z,18.02
2023-03-07T19:21:22.049Z,18.33
2023-03-07T19:23:49.611Z,15.80
2023-03-07T19:26:18.614Z,16.25
2023-03-07T19:28:47.447Z,18.20
2023-03-07T19:31:23.120Z,17.70
2023-03-07T19:33:52.189Z,19.15
2023-03-07T19:36:27.095Z,18.58
2023-03-07T19:38:56.434Z,17.60
2023-03-07T19:41:26.690Z,16.65
2023-03-07T19:43:55.157Z,17.45
2023-03-07T19:46:23.594Z,17.67
2023-03-07T19:48:52.190Z,18.80
2023-03-07T19:51:22.931Z,17.10
2023-03-07T19:56:53.941Z,16.35
2023-03-07T19:59:34.216Z,18.90
2023-03-07T20:02:04.242Z,18.98
2023-03-07T20:04:34.231Z,18.15
2023-03-07T20:07:03.161Z,17.60
2023-03-07T20:11:36.943Z,17.60
2023-03-07T20:20:31.618Z,17.25
2023-03-07T20:23:09.877Z,17.52
2023-03-07T20:26:02.741Z,18.02
2023-03-07T20:28:47.217Z,16.98
2023-03-07T20:31:16.983Z,17.02
2023-03-07T20:33:50.363Z,18.23
2023-03-07T20:36:24.748Z,17.40
2023-03-07T20:39:03.467Z,17.85
2023-03-07T20:41:32.560Z,17.63
2023-03-07T20:44:05.098Z,18.08
2023-03-07T20:46:33.317Z,17.88
2023-03-07T20:49:01.845Z,17.92
2023-03-07T20:51:31.362Z,17.40
2023-03-07T20:54:01.185Z,18.48
2023-03-07T20:56:30.654Z,18.70
2023-03-07T20:58:58.549Z,18.77
2023-03-07T21:01:29.489Z,17.90
2023-03-07T21:03:59.221Z,19.58
2023-03-07T21:06:27.763Z,18.03
2023-03-07T21:08:54.517Z,20.42
2023-03-07T21:11:21.786Z,19.30
2023-03-07T21:13:49.721Z,20.17
2023-03-07T21:16:19.861Z,21.60
2023-03-07T21:18:47.696Z,20.85
2023-03-07T21:21:16.912Z,21.20
2023-03-07T21:23:44.261Z,21.08
2023-03-07T21:26:13.964Z,19.55
2023-03-07T21:28:41.821Z,21.83
2023-03-07T21:31:23.429Z,20.42
2023-03-07T21:33:56.230Z,21.05
2023-03-07T21:36:27.241Z,20.38
2023-03-07T21:38:57.191Z,21.35
2023-03-07T21:41:54.589Z,19.92
2023-03-07T21:45:08.734Z,21.73
2023-03-07T21:50:20.530Z,21.15
2023-03-07T21:53:03.647Z,20.73
2023-03-07T21:56:05.119Z,20.08
2023-03-07T21:59:19.942Z,20.70
2023-03-07T22:04:19.015Z,20.10
2023-03-07T22:05:27.933Z,19.50
2023-03-07T22:08:48.633Z,21.88
2023-03-07T22:14:07.783Z,20.88
2023-03-07T22:16:34.588Z,21.33
2023-03-07T22:19:02.899Z,20.98
2023-03-07T22:21:29.670Z,21.50
2023-03-07T22:23:58.224Z,22.13
2023-03-07T22:26:25.722Z,21.17
2023-03-07T22:28:53.386Z,20.88
2023-03-07T22:31:20.441Z,23.02
2023-03-07T22:33:48.678Z,22.67
2023-03-07T22:36:15.544Z,22.05
2023-03-07T22:38:43.298Z,21.40
2023-03-07T22:41:12.688Z,20.92
2023-03-07T22:43:39.911Z,21.58
2023-03-07T22:46:08.592Z,21.35
2023-03-07T22:48:35.970Z,20.90
2023-03-07T22:51:03.278Z,20.08
2023-03-07T22:53:33.848Z,21.95
2023-03-07T22:56:00.902Z,22.13
2023-03-07T22:58:29.339Z,20.48
2023-03-07T23:00:56.586Z,21.15
2023-03-07T23:03:23.683Z,20.58
2023-03-07T23:05:50.848Z,21.35
2023-03-07T23:08:17.810Z,21.02
2023-03-07T23:10:44.852Z,23.02
2023-03-07T23:13:11.564Z,21.60
2023-03-07T23:15:41.688Z,20.13
2023-03-07T23:18:08.752Z,20.38
2023-03-07T23:20:37.688Z,21.55
2023-03-07T23:23:04.605Z,21.13
2023-03-07T23:25:33.004Z,22.13
2023-03-07T23:27:59.879Z,20.67
2023-03-07T23:30:26.747Z,20.60
2023-03-07T23:32:55.380Z,23.52
2023-03-07T23:35:23.313Z,20.77
2023-03-07T23:37:50.280Z,22.70
2023-03-07T23:40:17.063Z,21.58
2023-03-07T23:42:43.949Z,23.42
2023-03-07T23:45:13.253Z,23.13
2023-03-07T23:47:41.085Z,22.85
2023-03-07T23:50:09.302Z,23.98
2023-03-07T23:52:38.270Z,22.15
2023-03-07T23:55:09.088Z,22.88
2023-03-07T23:57:36.627Z,22.15
